sensor_id;sensor_type;location;lat;lon;timestamp;P1;durP1;ratioP1;P2;durP2;ratioP2
7881;SDS011;3986;41.884;23.466;2024-02-23T00:01:42;96.30;;;29.43;;
7881;SDS011;3986;41.884;23.466;2024-02-23T00:04:09;85.33;;;28.37;;
7881;SDS011;3986;41.884;23.466;2024-02-23T00:06:36;77.73;;;28.53;;
7881;SDS011;3986;41.884;23.466;2024-02-23T00:09:03;93.93;;;29.00;;
7881;SDS011;3986;41.884;23.466;2024-02-23T00:11:30;87.80;;;24.97;;
7881;SDS011;3986;41.884;23.466;2024-02-23T00:13:58;94.63;;;28.40;;
7881;SDS011;3986;41.884;23.466;2024-02-23T00:16:26;89.47;;;31.07;;
7881;SDS011;3986;41.884;23.466;2024-02-23T00:18:54;102.40;;;29.17;;
7881;SDS011;3986;41.884;23.466;2024-02-23T00:21:21;87.57;;;27.77;;
7881;SDS011;3986;41.884;23.466;2024-02-23T00:23:47;98.40;;;29.03;;
7881;SDS011;3986;41.884;23.466;2024-02-23T00:26:14;94.07;;;30.43;;
7881;SDS011;3986;41.884;23.466;2024-02-23T00:28:41;85.97;;;29.47;;
7881;SDS011;3986;41.884;23.466;2024-02-23T00:31:08;87.10;;;30.83;;
7881;SDS011;3986;41.884;23.466;2024-02-23T00:33:36;90.47;;;28.77;;
7881;SDS011;3986;41.884;23.466;2024-02-23T00:36:07;79.57;;;26.97;;
7881;SDS011;3986;41.884;23.466;2024-02-23T00:38:34;81.10;;;28.27;;
7881;SDS011;3986;41.884;23.466;2024-02-23T00:41:01;100.27;;;34.00;;
7881;SDS011;3986;41.884;23.466;2024-02-23T00:43:27;107.23;;;35.00;;
7881;SDS011;3986;41.884;23.466;2024-02-23T00:45:54;102.60;;;33.83;;
7881;SDS011;3986;41.884;23.466;2024-02-23T00:48:21;110.33;;;34.80;;
7881;SDS011;3986;41.884;23.466;2024-02-23T00:50:49;96.33;;;32.40;;
7881;SDS011;3986;41.884;23.466;2024-02-23T00:53:16;103.73;;;35.37;;
7881;SDS011;3986;41.884;23.466;2024-02-23T00:55:45;92.67;;;36.17;;
7881;SDS011;3986;41.884;23.466;2024-02-23T00:58:12;96.23;;;38.43;;
7881;SDS011;3986;41.884;23.466;2024-02-23T01:00:40;103.60;;;41.50;;
7881;SDS011;3986;41.884;23.466;2024-02-23T01:03:07;152.10;;;65.13;;
7881;SDS011;3986;41.884;23.466;2024-02-23T01:05:34;146.57;;;57.83;;
7881;SDS011;3986;41.884;23.466;2024-02-23T01:08:04;133.93;;;48.93;;
7881;SDS011;3986;41.884;23.466;2024-02-23T01:10:31;121.77;;;46.93;;
7881;SDS011;3986;41.884;23.466;2024-02-23T01:12:58;111.93;;;44.47;;
7881;SDS011;3986;41.884;23.466;2024-02-23T01:15:25;118.40;;;48.83;;
7881;SDS011;3986;41.884;23.466;2024-02-23T01:17:52;121.67;;;44.80;;
7881;SDS011;3986;41.884;23.466;2024-02-23T01:20:18;93.57;;;36.83;;
7881;SDS011;3986;41.884;23.466;2024-02-23T01:22:45;98.67;;;34.70;;
7881;SDS011;3986;41.884;23.466;2024-02-23T01:25:14;97.57;;;32.87;;
7881;SDS011;3986;41.884;23.466;2024-02-23T01:27:41;84.37;;;30.83;;
7881;SDS011;3986;41.884;23.466;2024-02-23T01:30:09;109.83;;;33.63;;
7881;SDS011;3986;41.884;23.466;2024-02-23T01:32:37;91.00;;;31.60;;
7881;SDS011;3986;41.884;23.466;2024-02-23T01:35:04;112.43;;;32.43;;
7881;SDS011;3986;41.884;23.466;2024-02-23T01:37:32;104.67;;;28.07;;
7881;SDS011;3986;41.884;23.466;2024-02-23T01:39:59;87.97;;;26.97;;
7881;SDS011;3986;41.884;23.466;2024-02-23T01:42:28;70.37;;;25.37;;
7881;SDS011;3986;41.884;23.466;2024-02-23T01:44:55;92.47;;;25.83;;
7881;SDS011;3986;41.884;23.466;2024-02-23T01:47:22;89.03;;;24.53;;
7881;SDS011;3986;41.884;23.466;2024-02-23T01:49:49;76.10;;;21.63;;
7881;SDS011;3986;41.884;23.466;2024-02-23T01:52:16;79.83;;;23.07;;
7881;SDS011;3986;41.884;23.466;2024-02-23T01:54:44;85.43;;;23.83;;
7881;SDS011;3986;41.884;23.466;2024-02-23T01:57:10;74.80;;;23.77;;
7881;SDS011;3986;41.884;23.466;2024-02-23T01:59:39;87.57;;;22.17;;
7881;SDS011;3986;41.884;23.466;2024-02-23T02:02:06;89.27;;;22.57;;
7881;SDS011;3986;41.884;23.466;2024-02-23T02:04:33;92.63;;;23.60;;
7881;SDS011;3986;41.884;23.466;2024-02-23T02:06:59;82.33;;;23.67;;
7881;SDS011;3986;41.884;23.466;2024-02-23T02:09:27;88.47;;;25.20;;
7881;SDS011;3986;41.884;23.466;2024-02-23T02:11:54;83.50;;;25.20;;
7881;SDS011;3986;41.884;23.466;2024-02-23T02:14:21;77.10;;;24.00;;
7881;SDS011;3986;41.884;23.466;2024-02-23T02:16:49;77.03;;;23.23;;
7881;SDS011;3986;41.884;23.466;2024-02-23T02:19:16;71.10;;;21.67;;
7881;SDS011;3986;41.884;23.466;2024-02-23T02:21:42;86.90;;;22.80;;
7881;SDS011;3986;41.884;23.466;2024-02-23T02:24:09;89.47;;;23.90;;
7881;SDS011;3986;41.884;23.466;2024-02-23T02:26:36;89.87;;;25.83;;
7881;SDS011;3986;41.884;23.466;2024-02-23T02:29:03;94.17;;;25.80;;
7881;SDS011;3986;41.884;23.466;2024-02-23T02:31:30;87.33;;;24.53;;
7881;SDS011;3986;41.884;23.466;2024-02-23T02:34:03;80.93;;;24.13;;
7881;SDS011;3986;41.884;23.466;2024-02-23T02:36:30;98.77;;;25.07;;
7881;SDS011;3986;41.884;23.466;2024-02-23T02:38:57;84.90;;;23.67;;
7881;SDS011;3986;41.884;23.466;2024-02-23T02:41:24;93.10;;;24.50;;
7881;SDS011;3986;41.884;23.466;2024-02-23T02:43:55;87.17;;;24.30;;
7881;SDS011;3986;41.884;23.466;2024-02-23T02:46:21;88.03;;;23.23;;
7881;SDS011;3986;41.884;23.466;2024-02-23T02:48:48;85.30;;;24.47;;
7881;SDS011;3986;41.884;23.466;2024-02-23T02:51:16;101.70;;;26.40;;
7881;SDS011;3986;41.884;23.466;2024-02-23T02:53:43;89.87;;;24.60;;
7881;SDS011;3986;41.884;23.466;2024-02-23T02:56:10;76.30;;;24.97;;
7881;SDS011;3986;41.884;23.466;2024-02-23T02:58:36;98.87;;;25.67;;
7881;SDS011;3986;41.884;23.466;2024-02-23T03:01:03;97.47;;;28.87;;
7881;SDS011;3986;41.884;23.466;2024-02-23T03:03:31;93.00;;;27.37;;
7881;SDS011;3986;41.884;23.466;2024-02-23T03:05:57;96.30;;;29.03;;
7881;SDS011;3986;41.884;23.466;2024-02-23T03:08:25;81.63;;;28.23;;
7881;SDS011;3986;41.884;23.466;2024-02-23T03:10:52;75.53;;;26.93;;
7881;SDS011;3986;41.884;23.466;2024-02-23T03:13:19;86.13;;;29.40;;
7881;SDS011;3986;41.884;23.466;2024-02-23T03:15:46;85.63;;;30.03;;
7881;SDS011;3986;41.884;23.466;2024-02-23T03:18:12;95.07;;;29.17;;
7881;SDS011;3986;41.884;23.466;2024-02-23T03:20:40;91.77;;;29.40;;
7881;SDS011;3986;41.884;23.466;2024-02-23T03:23:07;113.43;;;31.50;;
7881;SDS011;3986;41.884;23.466;2024-02-23T03:25:35;112.90;;;38.00;;
7881;SDS011;3986;41.884;23.466;2024-02-23T03:28:02;89.17;;;36.30;;
7881;SDS011;3986;41.884;23.466;2024-02-23T03:30:29;98.80;;;37.40;;
7881;SDS011;3986;41.884;23.466;2024-02-23T03:32:55;87.83;;;35.67;;
7881;SDS011;3986;41.884;23.466;2024-02-23T03:35:22;94.27;;;38.97;;
7881;SDS011;3986;41.884;23.466;2024-02-23T03:37:49;110.30;;;40.87;;
7881;SDS011;3986;41.884;23.466;2024-02-23T03:40:16;105.87;;;37.93;;
7881;SDS011;3986;41.884;23.466;2024-02-23T03:42:45;94.97;;;34.73;;
7881;SDS011;3986;41.884;23.466;2024-02-23T03:45:12;110.47;;;37.23;;
7881;SDS011;3986;41.884;23.466;2024-02-23T03:47:39;102.37;;;36.50;;
7881;SDS011;3986;41.884;23.466;2024-02-23T03:50:06;94.87;;;37.53;;
7881;SDS011;3986;41.884;23.466;2024-02-23T03:52:33;113.87;;;39.23;;
7881;SDS011;3986;41.884;23.466;2024-02-23T03:55:00;99.00;;;37.63;;
7881;SDS011;3986;41.884;23.466;2024-02-23T03:57:28;89.83;;;37.33;;
7881;SDS011;3986;41.884;23.466;2024-02-23T03:59:56;101.27;;;39.80;;
7881;SDS011;3986;41.884;23.466;2024-02-23T04:02:23;91.37;;;37.23;;
7881;SDS011;3986;41.884;23.466;2024-02-23T04:04:50;99.10;;;37.13;;
7881;SDS011;3986;41.884;23.466;2024-02-23T04:07:17;124.43;;;36.53;;
7881;SDS011;3986;41.884;23.466;2024-02-23T04:09:43;112.60;;;36.60;;
7881;SDS011;3986;41.884;23.466;2024-02-23T04:12:10;110.67;;;39.93;;
7881;SDS011;3986;41.884;23.466;2024-02-23T04:14:37;106.63;;;35.33;;
7881;SDS011;3986;41.884;23.466;2024-02-23T04:17:07;103.43;;;34.03;;
7881;SDS011;3986;41.884;23.466;2024-02-23T04:19:33;109.87;;;36.13;;
7881;SDS011;3986;41.884;23.466;2024-02-23T04:22:00;104.53;;;36.23;;
7881;SDS011;3986;41.884;23.466;2024-02-23T04:24:27;90.43;;;37.90;;
7881;SDS011;3986;41.884;23.466;2024-02-23T04:26:53;117.53;;;40.90;;
7881;SDS011;3986;41.884;23.466;2024-02-23T04:29:20;92.27;;;38.20;;
7881;SDS011;3986;41.884;23.466;2024-02-23T04:31:47;104.57;;;36.67;;
7881;SDS011;3986;41.884;23.466;2024-02-23T04:34:15;100.37;;;36.57;;
7881;SDS011;3986;41.884;23.466;2024-02-23T04:36:42;106.40;;;33.33;;
7881;SDS011;3986;41.884;23.466;2024-02-23T04:39:09;104.67;;;34.13;;
7881;SDS011;3986;41.884;23.466;2024-02-23T04:41:36;101.87;;;39.80;;
7881;SDS011;3986;41.884;23.466;2024-02-23T04:44:02;101.10;;;42.30;;
7881;SDS011;3986;41.884;23.466;2024-02-23T04:46:30;106.77;;;46.03;;
7881;SDS011;3986;41.884;23.466;2024-02-23T04:48:59;112.93;;;47.73;;
7881;SDS011;3986;41.884;23.466;2024-02-23T04:51:27;95.30;;;49.20;;
7881;SDS011;3986;41.884;23.466;2024-02-23T04:53:54;105.93;;;51.87;;
7881;SDS011;3986;41.884;23.466;2024-02-23T04:56:21;111.60;;;53.03;;
7881;SDS011;3986;41.884;23.466;2024-02-23T04:58:47;120.60;;;50.93;;
7881;SDS011;3986;41.884;23.466;2024-02-23T05:01:14;154.47;;;51.43;;
7881;SDS011;3986;41.884;23.466;2024-02-23T05:03:41;109.50;;;43.50;;
7881;SDS011;3986;41.884;23.466;2024-02-23T05:06:08;115.73;;;42.87;;
7881;SDS011;3986;41.884;23.466;2024-02-23T05:08:36;112.40;;;42.57;;
7881;SDS011;3986;41.884;23.466;2024-02-23T05:11:03;98.03;;;37.27;;
7881;SDS011;3986;41.884;23.466;2024-02-23T05:13:30;91.03;;;37.27;;
7881;SDS011;3986;41.884;23.466;2024-02-23T05:15:57;91.47;;;37.67;;
7881;SDS011;3986;41.884;23.466;2024-02-23T05:18:23;97.53;;;39.73;;
7881;SDS011;3986;41.884;23.466;2024-02-23T05:20:50;92.83;;;41.37;;
7881;SDS011;3986;41.884;23.466;2024-02-23T05:23:17;102.67;;;40.00;;
7881;SDS011;3986;41.884;23.466;2024-02-23T05:25:45;105.70;;;42.07;;
7881;SDS011;3986;41.884;23.466;2024-02-23T05:28:12;109.03;;;42.03;;
7881;SDS011;3986;41.884;23.466;2024-02-23T05:30:39;116.37;;;44.17;;
7881;SDS011;3986;41.884;23.466;2024-02-23T05:33:05;102.37;;;42.90;;
7881;SDS011;3986;41.884;23.466;2024-02-23T05:35:33;93.47;;;43.60;;
7881;SDS011;3986;41.884;23.466;2024-02-23T05:37:59;109.90;;;42.83;;
7881;SDS011;3986;41.884;23.466;2024-02-23T05:40:26;118.40;;;49.83;;
7881;SDS011;3986;41.884;23.466;2024-02-23T05:42:55;104.20;;;45.00;;
7881;SDS011;3986;41.884;23.466;2024-02-23T05:45:22;125.13;;;47.67;;
7881;SDS011;3986;41.884;23.466;2024-02-23T05:47:48;128.73;;;53.37;;
7881;SDS011;3986;41.884;23.466;2024-02-23T05:50:15;129.90;;;48.80;;
7881;SDS011;3986;41.884;23.466;2024-02-23T05:52:42;126.03;;;51.57;;
7881;SDS011;3986;41.884;23.466;2024-02-23T05:55:09;135.53;;;50.53;;
7881;SDS011;3986;41.884;23.466;2024-02-23T05:57:36;124.50;;;47.07;;
7881;SDS011;3986;41.884;23.466;2024-02-23T06:00:04;128.53;;;47.90;;
7881;SDS011;3986;41.884;23.466;2024-02-23T06:02:32;123.63;;;47.20;;
7881;SDS011;3986;41.884;23.466;2024-02-23T06:04:59;122.83;;;47.40;;
7881;SDS011;3986;41.884;23.466;2024-02-23T06:07:26;126.20;;;54.10;;
7881;SDS011;3986;41.884;23.466;2024-02-23T06:09:54;146.53;;;54.97;;
7881;SDS011;3986;41.884;23.466;2024-02-23T06:12:21;130.90;;;58.50;;
7881;SDS011;3986;41.884;23.466;2024-02-23T06:14:48;177.47;;;81.27;;
7881;SDS011;3986;41.884;23.466;2024-02-23T06:17:16;129.63;;;55.60;;
7881;SDS011;3986;41.884;23.466;2024-02-23T06:19:43;141.23;;;61.20;;
7881;SDS011;3986;41.884;23.466;2024-02-23T06:22:10;173.83;;;74.20;;
7881;SDS011;3986;41.884;23.466;2024-02-23T06:24:37;158.70;;;70.97;;
7881;SDS011;3986;41.884;23.466;2024-02-23T06:27:04;147.27;;;67.43;;
7881;SDS011;3986;41.884;23.466;2024-02-23T06:29:31;184.23;;;76.67;;
7881;SDS011;3986;41.884;23.466;2024-02-23T06:31:59;178.83;;;78.60;;
7881;SDS011;3986;41.884;23.466;2024-02-23T06:34:29;164.83;;;78.37;;
7881;SDS011;3986;41.884;23.466;2024-02-23T06:36:56;150.33;;;69.00;;
7881;SDS011;3986;41.884;23.466;2024-02-23T06:39:23;159.27;;;81.00;;
7881;SDS011;3986;41.884;23.466;2024-02-23T06:41:50;158.30;;;73.97;;
7881;SDS011;3986;41.884;23.466;2024-02-23T06:44:16;151.83;;;63.00;;
7881;SDS011;3986;41.884;23.466;2024-02-23T06:46:43;133.80;;;47.63;;
7881;SDS011;3986;41.884;23.466;2024-02-23T06:49:10;125.93;;;54.70;;
7881;SDS011;3986;41.884;23.466;2024-02-23T06:51:38;145.13;;;64.83;;
7881;SDS011;3986;41.884;23.466;2024-02-23T06:54:06;136.00;;;56.77;;
7881;SDS011;3986;41.884;23.466;2024-02-23T06:56:33;154.20;;;52.97;;
7881;SDS011;3986;41.884;23.466;2024-02-23T06:59:02;135.90;;;41.53;;
7881;SDS011;3986;41.884;23.466;2024-02-23T07:01:29;88.40;;;36.63;;
7881;SDS011;3986;41.884;23.466;2024-02-23T07:03:56;114.53;;;42.63;;
7881;SDS011;3986;41.884;23.466;2024-02-23T07:06:23;181.50;;;39.40;;
7881;SDS011;3986;41.884;23.466;2024-02-23T07:08:52;138.10;;;34.77;;
7881;SDS011;3986;41.884;23.466;2024-02-23T07:11:19;128.83;;;44.47;;
7881;SDS011;3986;41.884;23.466;2024-02-23T07:13:46;130.27;;;46.00;;
7881;SDS011;3986;41.884;23.466;2024-02-23T07:16:13;130.47;;;41.37;;
7881;SDS011;3986;41.884;23.466;2024-02-23T07:18:40;125.10;;;41.87;;
7881;SDS011;3986;41.884;23.466;2024-02-23T07:21:07;127.60;;;36.80;;
7881;SDS011;3986;41.884;23.466;2024-02-23T07:23:34;117.10;;;37.07;;
7881;SDS011;3986;41.884;23.466;2024-02-23T07:26:02;143.97;;;42.93;;
7881;SDS011;3986;41.884;23.466;2024-02-23T07:28:29;149.43;;;43.27;;
7881;SDS011;3986;41.884;23.466;2024-02-23T07:30:57;113.27;;;39.97;;
7881;SDS011;3986;41.884;23.466;2024-02-23T07:33:24;141.10;;;43.67;;
7881;SDS011;3986;41.884;23.466;2024-02-23T07:35:51;135.47;;;40.30;;
7881;SDS011;3986;41.884;23.466;2024-02-23T07:38:18;152.43;;;41.70;;
7881;SDS011;3986;41.884;23.466;2024-02-23T07:40:44;121.93;;;38.50;;
7881;SDS011;3986;41.884;23.466;2024-02-23T07:43:13;128.50;;;36.47;;
7881;SDS011;3986;41.884;23.466;2024-02-23T07:45:39;103.40;;;38.10;;
7881;SDS011;3986;41.884;23.466;2024-02-23T07:48:07;118.47;;;35.33;;
7881;SDS011;3986;41.884;23.466;2024-02-23T07:50:34;185.63;;;36.13;;
7881;SDS011;3986;41.884;23.466;2024-02-23T07:53:01;102.37;;;31.80;;
7881;SDS011;3986;41.884;23.466;2024-02-23T07:55:29;120.20;;;31.97;;
7881;SDS011;3986;41.884;23.466;2024-02-23T07:57:56;123.03;;;33.50;;
7881;SDS011;3986;41.884;23.466;2024-02-23T08:00:27;128.97;;;31.47;;
7881;SDS011;3986;41.884;23.466;2024-02-23T08:02:54;147.17;;;30.67;;
7881;SDS011;3986;41.884;23.466;2024-02-23T08:05:21;147.47;;;30.63;;
7881;SDS011;3986;41.884;23.466;2024-02-23T08:07:48;124.70;;;24.60;;
7881;SDS011;3986;41.884;23.466;2024-02-23T08:10:15;88.27;;;24.07;;
7881;SDS011;3986;41.884;23.466;2024-02-23T08:12:42;120.37;;;22.13;;
7881;SDS011;3986;41.884;23.466;2024-02-23T08:15:09;88.83;;;21.43;;
7881;SDS011;3986;41.884;23.466;2024-02-23T08:17:37;104.53;;;22.67;;
7881;SDS011;3986;41.884;23.466;2024-02-23T08:20:04;88.70;;;20.47;;
7881;SDS011;3986;41.884;23.466;2024-02-23T08:22:32;88.88;;;19.13;;
7881;SDS011;3986;41.884;23.466;2024-02-23T08:24:59;125.15;;;29.85;;
7881;SDS011;3986;41.884;23.466;2024-02-23T08:27:26;89.85;;;21.10;;
7881;SDS011;3986;41.884;23.466;2024-02-23T08:29:53;95.47;;;20.70;;
7881;SDS011;3986;41.884;23.466;2024-02-23T08:32:20;108.47;;;23.95;;
7881;SDS011;3986;41.884;23.466;2024-02-23T08:34:48;83.60;;;19.42;;
7881;SDS011;3986;41.884;23.466;2024-02-23T08:37:15;115.63;;;23.50;;
7881;SDS011;3986;41.884;23.466;2024-02-23T08:39:42;89.30;;;23.25;;
7881;SDS011;3986;41.884;23.466;2024-02-23T08:42:09;78.47;;;19.40;;
7881;SDS011;3986;41.884;23.466;2024-02-23T08:44:35;60.35;;;14.45;;
7881;SDS011;3986;41.884;23.466;2024-02-23T08:47:04;64.22;;;14.13;;
7881;SDS011;3986;41.884;23.466;2024-02-23T08:49:31;86.18;;;16.05;;
7881;SDS011;3986;41.884;23.466;2024-02-23T08:51:59;103.30;;;16.27;;
7881;SDS011;3986;41.884;23.466;2024-02-23T08:54:27;81.75;;;17.77;;
7881;SDS011;3986;41.884;23.466;2024-02-23T08:56:54;97.35;;;20.17;;
7881;SDS011;3986;41.884;23.466;2024-02-23T08:59:21;114.70;;;18.45;;
7881;SDS011;3986;41.884;23.466;2024-02-23T09:01:47;97.68;;;16.17;;
7881;SDS011;3986;41.884;23.466;2024-02-23T09:04:14;97.32;;;16.27;;
7881;SDS011;3986;41.884;23.466;2024-02-23T09:06:41;76.50;;;15.07;;
7881;SDS011;3986;41.884;23.466;2024-02-23T09:09:09;77.03;;;15.27;;
7881;SDS011;3986;41.884;23.466;2024-02-23T09:11:36;104.32;;;16.90;;
7881;SDS011;3986;41.884;23.466;2024-02-23T09:14:03;58.28;;;14.50;;
7881;SDS011;3986;41.884;23.466;2024-02-23T09:16:30;113.70;;;17.63;;
7881;SDS011;3986;41.884;23.466;2024-02-23T09:18:57;111.03;;;15.93;;
7881;SDS011;3986;41.884;23.466;2024-02-23T09:21:24;114.05;;;18.20;;
7881;SDS011;3986;41.884;23.466;2024-02-23T09:23:50;94.85;;;15.20;;
7881;SDS011;3986;41.884;23.466;2024-02-23T09:26:18;97.18;;;14.35;;
7881;SDS011;3986;41.884;23.466;2024-02-23T09:28:45;123.40;;;17.48;;
7881;SDS011;3986;41.884;23.466;2024-02-23T09:31:12;103.30;;;17.50;;
7881;SDS011;3986;41.884;23.466;2024-02-23T09:33:39;145.80;;;18.40;;
7881;SDS011;3986;41.884;23.466;2024-02-23T09:36:06;76.25;;;14.63;;
7881;SDS011;3986;41.884;23.466;2024-02-23T09:38:35;116.20;;;14.43;;
7881;SDS011;3986;41.884;23.466;2024-02-23T09:41:02;117.55;;;16.00;;
7881;SDS011;3986;41.884;23.466;2024-02-23T09:43:31;100.28;;;14.85;;
7881;SDS011;3986;41.884;23.466;2024-02-23T09:46:00;69.88;;;13.82;;
7881;SDS011;3986;41.884;23.466;2024-02-23T09:48:27;120.60;;;15.75;;
7881;SDS011;3986;41.884;23.466;2024-02-23T09:50:56;89.80;;;15.30;;
7881;SDS011;3986;41.884;23.466;2024-02-23T09:53:25;112.90;;;15.68;;
7881;SDS011;3986;41.884;23.466;2024-02-23T09:55:52;109.13;;;18.95;;
7881;SDS011;3986;41.884;23.466;2024-02-23T09:58:21;102.20;;;15.32;;
7881;SDS011;3986;41.884;23.466;2024-02-23T10:00:50;107.72;;;14.45;;
7881;SDS011;3986;41.884;23.466;2024-02-23T10:03:17;86.10;;;13.73;;
7881;SDS011;3986;41.884;23.466;2024-02-23T10:05:44;140.88;;;17.30;;
7881;SDS011;3986;41.884;23.466;2024-02-23T10:08:11;94.85;;;13.90;;
7881;SDS011;3986;41.884;23.466;2024-02-23T10:10:38;108.75;;;14.52;;
7881;SDS011;3986;41.884;23.466;2024-02-23T10:13:06;97.18;;;14.43;;
7881;SDS011;3986;41.884;23.466;2024-02-23T10:15:33;141.23;;;17.30;;
7881;SDS011;3986;41.884;23.466;2024-02-23T10:18:02;100.35;;;14.35;;
7881;SDS011;3986;41.884;23.466;2024-02-23T10:20:29;126.38;;;15.27;;
7881;SDS011;3986;41.884;23.466;2024-02-23T10:22:55;162.23;;;17.55;;
7881;SDS011;3986;41.884;23.466;2024-02-23T10:25:23;135.75;;;16.77;;
7881;SDS011;3986;41.884;23.466;2024-02-23T10:27:49;127.05;;;19.20;;
7881;SDS011;3986;41.884;23.466;2024-02-23T10:30:16;94.82;;;13.40;;
7881;SDS011;3986;41.884;23.466;2024-02-23T10:32:43;151.70;;;16.98;;
7881;SDS011;3986;41.884;23.466;2024-02-23T10:35:14;89.03;;;18.05;;
7881;SDS011;3986;41.884;23.466;2024-02-23T10:37:42;159.55;;;18.35;;
7881;SDS011;3986;41.884;23.466;2024-02-23T10:40:11;99.93;;;13.50;;
7881;SDS011;3986;41.884;23.466;2024-02-23T10:42:38;87.35;;;12.80;;
7881;SDS011;3986;41.884;23.466;2024-02-23T10:45:07;90.85;;;13.50;;
7881;SDS011;3986;41.884;23.466;2024-02-23T10:47:34;62.35;;;11.30;;
7881;SDS011;3986;41.884;23.466;2024-02-23T10:50:02;128.27;;;13.95;;
7881;SDS011;3986;41.884;23.466;2024-02-23T10:52:32;148.68;;;15.05;;
7881;SDS011;3986;41.884;23.466;2024-02-23T10:55:01;134.73;;;15.50;;
7881;SDS011;3986;41.884;23.466;2024-02-23T10:57:30;105.30;;;16.38;;
7881;SDS011;3986;41.884;23.466;2024-02-23T10:59:57;142.88;;;18.33;;
7881;SDS011;3986;41.884;23.466;2024-02-23T11:02:24;104.80;;;16.33;;
7881;SDS011;3986;41.884;23.466;2024-02-23T11:04:55;155.45;;;17.38;;
7881;SDS011;3986;41.884;23.466;2024-02-23T11:07:24;104.70;;;12.90;;
7881;SDS011;3986;41.884;23.466;2024-02-23T11:09:54;99.47;;;13.50;;
7881;SDS011;3986;41.884;23.466;2024-02-23T11:12:25;123.07;;;13.57;;
7881;SDS011;3986;41.884;23.466;2024-02-23T11:14:56;99.05;;;19.67;;
7881;SDS011;3986;41.884;23.466;2024-02-23T11:17:25;173.38;;;15.52;;
7881;SDS011;3986;41.884;23.466;2024-02-23T11:19:54;115.60;;;12.65;;
7881;SDS011;3986;41.884;23.466;2024-02-23T11:22:24;111.20;;;13.07;;
7881;SDS011;3986;41.884;23.466;2024-02-23T11:24:52;155.30;;;15.20;;
7881;SDS011;3986;41.884;23.466;2024-02-23T11:27:21;110.72;;;13.45;;
7881;SDS011;3986;41.884;23.466;2024-02-23T11:29:58;130.05;;;13.10;;
7881;SDS011;3986;41.884;23.466;2024-02-23T11:32:34;75.03;;;10.75;;
7881;SDS011;3986;41.884;23.466;2024-02-23T11:35:03;115.70;;;12.82;;
7881;SDS011;3986;41.884;23.466;2024-02-23T11:37:31;105.65;;;10.40;;
7881;SDS011;3986;41.884;23.466;2024-02-23T11:39:59;147.95;;;13.05;;
7881;SDS011;3986;41.884;23.466;2024-02-23T11:42:29;145.55;;;12.55;;
7881;SDS011;3986;41.884;23.466;2024-02-23T11:44:57;116.55;;;11.40;;
7881;SDS011;3986;41.884;23.466;2024-02-23T11:47:24;91.75;;;12.73;;
7881;SDS011;3986;41.884;23.466;2024-02-23T11:49:51;118.25;;;11.55;;
7881;SDS011;3986;41.884;23.466;2024-02-23T11:52:18;113.38;;;11.80;;
7881;SDS011;3986;41.884;23.466;2024-02-23T11:54:45;92.30;;;13.23;;
7881;SDS011;3986;41.884;23.466;2024-02-23T11:57:12;105.82;;;13.18;;
7881;SDS011;3986;41.884;23.466;2024-02-23T11:59:41;104.25;;;11.50;;
7881;SDS011;3986;41.884;23.466;2024-02-23T12:02:08;101.32;;;13.32;;
7881;SDS011;3986;41.884;23.466;2024-02-23T12:04:35;114.80;;;12.32;;
7881;SDS011;3986;41.884;23.466;2024-02-23T12:07:02;124.85;;;12.75;;
7881;SDS011;3986;41.884;23.466;2024-02-23T12:09:30;141.82;;;13.93;;
7881;SDS011;3986;41.884;23.466;2024-02-23T12:11:57;138.68;;;13.93;;
7881;SDS011;3986;41.884;23.466;2024-02-23T12:14:24;106.78;;;12.20;;
7881;SDS011;3986;41.884;23.466;2024-02-23T12:16:52;92.82;;;11.93;;
7881;SDS011;3986;41.884;23.466;2024-02-23T12:19:19;122.47;;;11.70;;
7881;SDS011;3986;41.884;23.466;2024-02-23T12:21:46;133.15;;;14.02;;
7881;SDS011;3986;41.884;23.466;2024-02-23T12:24:13;93.72;;;8.90;;
7881;SDS011;3986;41.884;23.466;2024-02-23T12:26:40;130.40;;;12.60;;
7881;SDS011;3986;41.884;23.466;2024-02-23T12:29:06;91.18;;;11.15;;
7881;SDS011;3986;41.884;23.466;2024-02-23T12:31:33;114.60;;;11.23;;
7881;SDS011;3986;41.884;23.466;2024-02-23T12:34:02;173.50;;;16.63;;
7881;SDS011;3986;41.884;23.466;2024-02-23T12:36:28;102.97;;;9.55;;
7881;SDS011;3986;41.884;23.466;2024-02-23T12:38:56;101.43;;;9.40;;
7881;SDS011;3986;41.884;23.466;2024-02-23T12:41:22;96.28;;;9.88;;
7881;SDS011;3986;41.884;23.466;2024-02-23T12:43:49;83.45;;;8.80;;
7881;SDS011;3986;41.884;23.466;2024-02-23T12:46:17;111.63;;;10.43;;
7881;SDS011;3986;41.884;23.466;2024-02-23T12:48:44;114.03;;;11.27;;
7881;SDS011;3986;41.884;23.466;2024-02-23T12:51:12;105.75;;;10.23;;
7881;SDS011;3986;41.884;23.466;2024-02-23T12:53:40;116.25;;;10.27;;
7881;SDS011;3986;41.884;23.466;2024-02-23T12:56:07;146.57;;;11.57;;
7881;SDS011;3986;41.884;23.466;2024-02-23T12:58:36;122.30;;;11.32;;
7881;SDS011;3986;41.884;23.466;2024-02-23T13:01:04;111.13;;;11.35;;
7881;SDS011;3986;41.884;23.466;2024-02-23T13:03:32;107.82;;;10.77;;
7881;SDS011;3986;41.884;23.466;2024-02-23T13:05:59;116.78;;;10.52;;
7881;SDS011;3986;41.884;23.466;2024-02-23T13:08:29;122.72;;;12.45;;
7881;SDS011;3986;41.884;23.466;2024-02-23T13:10:56;117.38;;;9.77;;
7881;SDS011;3986;41.884;23.466;2024-02-23T13:13:23;99.50;;;8.73;;
7881;SDS011;3986;41.884;23.466;2024-02-23T13:15:51;104.70;;;11.38;;
7881;SDS011;3986;41.884;23.466;2024-02-23T13:18:18;95.97;;;11.27;;
7881;SDS011;3986;41.884;23.466;2024-02-23T13:20:45;98.80;;;10.95;;
7881;SDS011;3986;41.884;23.466;2024-02-23T13:23:12;103.38;;;13.77;;
7881;SDS011;3986;41.884;23.466;2024-02-23T13:25:42;98.03;;;11.30;;
7881;SDS011;3986;41.884;23.466;2024-02-23T13:28:09;117.28;;;12.05;;
7881;SDS011;3986;41.884;23.466;2024-02-23T13:30:36;135.55;;;14.15;;
7881;SDS011;3986;41.884;23.466;2024-02-23T13:33:04;124.65;;;12.50;;
7881;SDS011;3986;41.884;23.466;2024-02-23T13:35:31;122.97;;;12.43;;
7881;SDS011;3986;41.884;23.466;2024-02-23T13:37:58;110.30;;;12.30;;
7881;SDS011;3986;41.884;23.466;2024-02-23T13:40:28;105.40;;;12.93;;
7881;SDS011;3986;41.884;23.466;2024-02-23T13:42:57;97.65;;;9.15;;
7881;SDS011;3986;41.884;23.466;2024-02-23T13:45:24;87.55;;;9.30;;
7881;SDS011;3986;41.884;23.466;2024-02-23T13:47:57;93.32;;;12.88;;
7881;SDS011;3986;41.884;23.466;2024-02-23T13:50:25;96.97;;;16.33;;
7881;SDS011;3986;41.884;23.466;2024-02-23T13:52:52;103.38;;;18.52;;
7881;SDS011;3986;41.884;23.466;2024-02-23T13:55:19;96.18;;;11.57;;
7881;SDS011;3986;41.884;23.466;2024-02-23T13:57:46;75.90;;;12.30;;
7881;SDS011;3986;41.884;23.466;2024-02-23T14:00:15;81.65;;;13.60;;
7881;SDS011;3986;41.884;23.466;2024-02-23T14:02:43;144.32;;;18.90;;
7881;SDS011;3986;41.884;23.466;2024-02-23T14:05:11;113.65;;;16.60;;
7881;SDS011;3986;41.884;23.466;2024-02-23T14:07:38;113.07;;;15.57;;
7881;SDS011;3986;41.884;23.466;2024-02-23T14:10:06;122.53;;;16.48;;
7881;SDS011;3986;41.884;23.466;2024-02-23T14:12:33;122.10;;;18.13;;
7881;SDS011;3986;41.884;23.466;2024-02-23T14:15:00;174.40;;;19.13;;
7881;SDS011;3986;41.884;23.466;2024-02-23T14:17:28;94.75;;;15.60;;
7881;SDS011;3986;41.884;23.466;2024-02-23T14:19:54;94.57;;;16.08;;
7881;SDS011;3986;41.884;23.466;2024-02-23T14:22:21;113.80;;;14.38;;
7881;SDS011;3986;41.884;23.466;2024-02-23T14:24:48;103.55;;;15.65;;
7881;SDS011;3986;41.884;23.466;2024-02-23T14:27:15;107.85;;;17.30;;